Time;durP1;ratioP1;P1;durP2;ratioP2;P2;SDS_P1;SDS_P2;PMS_P1;PMS_P2;Temp;Humidity;BMP_temperature;BMP_pressure;BME280_temperature;BME280_humidity;BME280_pressure;Samples;Min_cycle;Max_cycle;Signal;HPM_P1;HPM_P2
2022/12/18 00:00:53;;;;;;;110.22;47.25;;;-7.30;15.40;;;;;;7389180;19;20022;-78
2022/12/18 00:03:23;;;;;;;101.10;43.80;;;-7.20;15.20;;;;;;7389079;19;20017;-78
2022/12/18 00:05:54;;;;;;;106.68;44.08;;;-7.30;15.20;;;;;;7389344;19;20014;-78
2022/12/18 00:08:24;;;;;;;100.97;45.35;;;-7.30;15.00;;;;;;7389964;19;20036;-77
2022/12/18 00:10:54;;;;;;;97.53;41.90;;;-7.40;13.80;;;;;;7389060;19;20031;-77
2022/12/18 00:13:31;;;;;;;104.85;44.30;;;-7.50;14.00;;;;;;7390983;19;20002;-78
2022/12/18 00:16:04;;;;;;;103.50;45.60;;;-7.30;15.00;;;;;;7389266;19;20025;-76
2022/12/18 00:18:35;;;;;;;104.20;44.90;;;-7.30;14.10;;;;;;7387923;19;20010;-77
2022/12/18 00:21:07;;;;;;;102.50;43.88;;;-7.30;14.30;;;;;;7390445;19;20031;-77
2022/12/18 00:23:39;;;;;;;105.45;45.97;;;-7.30;14.90;;;;;;7390387;19;20498;-77
2022/12/18 00:26:13;;;;;;;102.63;44.70;;;-7.40;14.80;;;;;;7388659;19;20022;-77
2022/12/18 00:28:46;;;;;;;121.13;44.95;;;-7.40;14.60;;;;;;7388888;19;20024;-77
2022/12/18 00:31:18;;;;;;;100.85;45.25;;;-7.40;14.70;;;;;;7387558;19;20010;-78
2022/12/18 00:33:49;;;;;;;108.05;44.03;;;-7.40;14.90;;;;;;7389819;19;20018;-78
2022/12/18 00:36:26;;;;;;;103.80;44.97;;;-7.40;14.80;;;;;;7388554;19;20019;-77
2022/12/18 00:38:57;;;;;;;107.15;45.40;;;-7.50;13.80;;;;;;7388197;19;20521;-78
2022/12/18 00:44:15;;;;;;;98.68;43.78;;;-7.60;14.80;;;;;;7388146;19;20022;-78
2022/12/18 00:46:45;;;;;;;106.35;45.85;;;-7.60;15.00;;;;;;7389101;19;20335;-77
2022/12/18 00:49:15;;;;;;;101.85;45.38;;;-7.60;15.10;;;;;;7386380;19;20029;-78
2022/12/18 00:51:45;;;;;;;109.35;46.05;;;-7.60;14.90;;;;;;7387154;19;20028;-78
2022/12/18 00:54:15;;;;;;;94.68;43.35;;;-7.60;15.00;;;;;;7389184;19;20470;-77
2022/12/18 00:56:45;;;;;;;104.88;46.42;;;-7.60;14.90;;;;;;7387420;19;20025;-77
2022/12/18 00:59:21;;;;;;;99.97;44.95;;;-7.70;14.50;;;;;;7385655;19;20419;-77
2022/12/18 01:01:51;;;;;;;114.82;46.40;;;-7.60;15.00;;;;;;7387205;19;20082;-78
2022/12/18 01:04:21;;;;;;;116.93;47.72;;;-7.50;15.10;;;;;;7386642;19;20015;-77
2022/12/18 01:06:51;;;;;;;114.05;48.47;;;-7.50;14.40;;;;;;7389178;19;20086;-78
2022/12/18 01:09:21;;;;;;;106.18;45.60;;;-7.60;14.60;;;;;;7385719;19;20063;-77
2022/12/18 01:11:51;;;;;;;104.53;46.38;;;-7.60;14.90;;;;;;7386970;19;20022;-77
2022/12/18 01:14:23;;;;;;;100.57;45.97;;;-7.60;15.00;;;;;;7391131;19;20074;-77
2022/12/18 01:16:53;;;;;;;106.05;45.92;;;-7.70;14.60;;;;;;7386969;19;20038;-77
2022/12/18 01:19:23;;;;;;;113.03;46.25;;;-7.70;14.90;;;;;;7385483;19;20018;-76
2022/12/18 01:21:53;;;;;;;103.68;46.05;;;-7.70;15.10;;;;;;7387279;19;20341;-77
2022/12/18 01:24:23;;;;;;;117.45;48.08;;;-7.60;15.00;;;;;;7386664;19;20035;-77
2022/12/18 01:26:53;;;;;;;106.85;46.20;;;-7.60;15.00;;;;;;7386826;19;20014;-78
2022/12/18 01:29:26;;;;;;;106.07;46.00;;;-7.70;14.30;;;;;;7386853;19;20070;-77
2022/12/18 01:31:57;;;;;;;108.55;46.72;;;-7.80;14.00;;;;;;7386309;19;20534;-77
2022/12/18 01:34:27;;;;;;;108.75;47.60;;;-7.80;14.00;;;;;;7386403;19;20006;-77
2022/12/18 01:36:57;;;;;;;114.65;46.00;;;-7.80;13.40;;;;;;7386982;19;20325;-77
2022/12/18 01:39:28;;;;;;;105.63;45.92;;;-7.80;14.10;;;;;;7384687;19;20085;-77
2022/12/18 01:42:04;;;;;;;101.88;45.58;;;-7.90;13.00;;;;;;7386913;19;20014;-77
2022/12/18 01:44:59;;;;;;;107.88;45.92;;;-7.80;13.60;;;;;;7386312;19;20021;-78
2022/12/18 01:47:34;;;;;;;105.25;46.65;;;-7.90;13.30;;;;;;7387072;19;20017;-77
2022/12/18 01:50:09;;;;;;;108.55;45.95;;;-7.80;13.80;;;;;;7384101;19;20019;-78
2022/12/18 01:52:42;;;;;;;105.85;45.10;;;-7.70;14.30;;;;;;7385085;19;20408;-77
2022/12/18 01:55:16;;;;;;;110.55;46.13;;;-7.70;14.00;;;;;;7385836;19;20026;-77
2022/12/18 01:57:46;;;;;;;106.15;42.70;;;-7.80;13.30;;;;;;7386384;19;20029;-77
2022/12/18 02:00:22;;;;;;;100.35;43.97;;;-7.80;13.40;;;;;;7383669;19;20014;-77
2022/12/18 02:02:52;;;;;;;104.43;45.00;;;-7.80;13.20;;;;;;7386067;19;20010;-77
2022/12/18 02:05:31;;;;;;;107.38;44.95;;;-7.80;13.10;;;;;;7385856;19;20015;-78
2022/12/18 02:08:11;;;;;;;96.43;42.75;;;-7.70;14.20;;;;;;7386076;19;20015;-77
2022/12/18 02:10:49;;;;;;;106.10;43.60;;;-7.70;13.80;;;;;;7386569;19;20025;-77
2022/12/18 02:13:26;;;;;;;92.07;41.95;;;-7.80;13.10;;;;;;7386472;19;20094;-77
2022/12/18 02:16:05;;;;;;;93.50;42.30;;;-7.80;13.80;;;;;;7392371;19;20025;-78
2022/12/18 02:18:38;;;;;;;100.40;42.22;;;-7.70;13.90;;;;;;7391862;19;20025;-77
2022/12/18 02:21:20;;;;;;;98.55;42.60;;;-7.70;14.00;;;;;;7392954;19;20015;-76
2022/12/18 02:23:58;;;;;;;100.63;43.05;;;-7.60;14.10;;;;;;7394899;19;20033;-77
2022/12/18 02:26:37;;;;;;;92.03;40.50;;;-7.70;13.50;;;;;;7392683;19;20014;-77
2022/12/18 02:29:12;;;;;;;101.00;40.65;;;-7.70;13.30;;;;;;7390791;19;20014;-77
2022/12/18 02:31:48;;;;;;;97.32;40.10;;;-7.80;13.30;;;;;;7393784;19;20086;-76
2022/12/18 02:34:19;;;;;;;91.70;38.95;;;-7.80;13.40;;;;;;7390209;19;20018;-77
2022/12/18 02:36:52;;;;;;;100.05;40.25;;;-7.80;13.50;;;;;;7392146;19;20030;-77
2022/12/18 02:39:24;;;;;;;97.93;42.05;;;-7.80;13.60;;;;;;7390453;19;20515;-77
2022/12/18 02:41:57;;;;;;;91.15;38.80;;;-7.70;13.90;;;;;;7392237;19;20021;-77
2022/12/18 02:44:26;;;;;;;92.63;39.28;;;-7.70;13.80;;;;;;7392146;19;20014;-77
2022/12/18 02:46:57;;;;;;;91.40;39.38;;;-7.60;13.90;;;;;;7391611;19;20373;-77
2022/12/18 02:49:36;;;;;;;90.70;39.97;;;-7.60;13.50;;;;;;7389737;19;20474;-77
2022/12/18 02:52:16;;;;;;;93.03;37.40;;;-7.70;13.50;;;;;;7392031;19;20052;-76
2022/12/18 02:55:00;;;;;;;86.07;37.92;;;-7.70;13.30;;;;;;7389524;19;20018;-77
2022/12/18 02:57:37;;;;;;;95.68;36.92;;;-7.60;13.40;;;;;;7391912;19;20032;-76
2022/12/18 03:00:13;;;;;;;84.78;37.47;;;-7.70;13.30;;;;;;7388983;19;20020;-77
2022/12/18 03:02:49;;;;;;;86.63;37.70;;;-7.60;13.70;;;;;;7391703;19;20015;-77
2022/12/18 03:05:23;;;;;;;92.65;39.60;;;-7.60;13.20;;;;;;7393502;19;20086;-77
2022/12/18 03:08:01;;;;;;;89.82;38.65;;;-7.70;13.10;;;;;;7391805;19;20015;-77
2022/12/18 03:10:34;;;;;;;88.95;37.53;;;-7.70;13.30;;;;;;7388332;19;20037;-77
2022/12/18 03:13:11;;;;;;;84.53;37.20;;;-7.60;13.60;;;;;;7391389;19;20086;-77
2022/12/18 03:15:48;;;;;;;87.82;36.92;;;-7.60;13.50;;;;;;7390876;19;20015;-77
2022/12/18 03:18:22;;;;;;;81.43;34.95;;;-7.60;13.80;;;;;;7390538;19;20015;-78
2022/12/18 03:20:53;;;;;;;81.28;36.67;;;-7.50;13.80;;;;;;7391033;19;20484;-77
2022/12/18 03:23:26;;;;;;;84.95;36.58;;;-7.60;13.70;;;;;;7390966;19;20525;-78
2022/12/18 03:26:01;;;;;;;90.53;38.10;;;-7.50;14.00;;;;;;7389070;19;20014;-77
2022/12/18 03:28:42;;;;;;;88.38;37.45;;;-7.60;13.50;;;;;;7389701;19;20025;-77
2022/12/18 03:31:15;;;;;;;82.95;37.13;;;-7.50;13.90;;;;;;7390642;19;20015;-78
2022/12/18 03:33:49;;;;;;;87.40;36.60;;;-7.60;14.00;;;;;;7389776;19;20018;-77
2022/12/18 03:36:20;;;;;;;91.97;38.20;;;-7.60;13.40;;;;;;7390022;19;20035;-76
2022/12/18 03:38:50;;;;;;;92.38;37.53;;;-7.60;13.80;;;;;;7389186;19;20040;-77
2022/12/18 03:41:28;;;;;;;77.93;33.58;;;-7.50;13.30;;;;;;7391798;19;20546;-78
2022/12/18 03:44:06;;;;;;;87.28;36.88;;;-7.60;13.10;;;;;;7390426;19;20018;-77
2022/12/18 03:46:45;;;;;;;80.70;35.80;;;-7.60;13.40;;;;;;7390160;19;20010;-77
2022/12/18 03:49:24;;;;;;;84.25;35.58;;;-7.50;13.50;;;;;;7388475;19;20022;-77
2022/12/18 03:52:05;;;;;;;79.55;33.70;;;-7.50;12.70;;;;;;7391600;19;20031;-77
2022/12/18 03:54:37;;;;;;;78.45;34.08;;;-7.50;12.00;;;;;;7388837;19;20014;-77
2022/12/18 03:57:12;;;;;;;78.05;34.63;;;-7.50;11.60;;;;;;7389895;19;20022;-77
2022/12/18 03:59:47;;;;;;;74.45;35.15;;;-7.50;12.10;;;;;;7389221;19;20014;-78
2022/12/18 04:02:19;;;;;;;79.38;35.55;;;-7.50;11.60;;;;;;7389839;19;20082;-78
2022/12/18 04:04:50;;;;;;;81.07;33.60;;;-7.60;11.60;;;;;;7391170;19;20011;-78
2022/12/18 04:07:21;;;;;;;69.78;32.85;;;-7.60;12.10;;;;;;7388808;19;20483;-77
2022/12/18 04:09:54;;;;;;;68.07;32.08;;;-7.70;11.50;;;;;;7387285;19;20011;-77
2022/12/18 04:12:26;;;;;;;77.70;34.90;;;-7.60;11.60;;;;;;7389441;19;20039;-77
2022/12/18 04:14:58;;;;;;;72.22;31.92;;;-7.70;11.50;;;;;;7388261;19;20346;-77
2022/12/18 04:17:28;;;;;;;70.35;32.20;;;-7.80;11.50;;;;;;7390681;19;20019;-77
2022/12/18 04:19:58;;;;;;;70.47;32.78;;;-7.80;11.50;;;;;;7387239;19;20022;-77
2022/12/18 04:22:28;;;;;;;73.53;33.30;;;-7.80;11.90;;;;;;7389040;19;20014;-76
2022/12/18 04:24:58;;;;;;;77.13;33.00;;;-7.80;11.80;;;;;;7389069;19;20078;-77
2022/12/18 04:27:28;;;;;;;77.15;33.47;;;-7.80;11.60;;;;;;7388156;19;20526;-77
2022/12/18 04:30:00;;;;;;;73.05;31.42;;;-7.80;11.90;;;;;;7386988;19;20095;-78
2022/12/18 04:32:31;;;;;;;81.65;33.85;;;-7.80;11.50;;;;;;7389673;19;20011;-77
2022/12/18 04:35:00;;;;;;;75.60;34.25;;;-7.90;11.40;;;;;;7387372;19;20090;-78
2022/12/18 04:37:30;;;;;;;71.95;33.53;;;-7.90;11.80;;;;;;7389741;19;20035;-77
2022/12/18 04:40:00;;;;;;;80.45;33.38;;;-7.80;12.00;;;;;;7386514;19;20021;-77
2022/12/18 04:42:30;;;;;;;71.13;32.20;;;-7.90;11.70;;;;;;7389631;19;20499;-76
2022/12/18 04:45:03;;;;;;;80.72;33.60;;;-7.90;12.00;;;;;;7388015;19;20039;-76
2022/12/18 04:47:33;;;;;;;75.43;33.38;;;-7.80;12.10;;;;;;7388534;19;20035;-76
2022/12/18 04:50:03;;;;;;;70.82;33.05;;;-7.80;12.10;;;;;;7386221;19;20018;-78
2022/12/18 04:52:33;;;;;;;75.43;30.15;;;-7.70;11.50;;;;;;7388015;19;20606;-77
2022/12/18 04:55:03;;;;;;;67.05;32.17;;;-7.80;11.50;;;;;;7386650;19;20014;-77
2022/12/18 04:57:33;;;;;;;72.40;31.85;;;-7.80;11.50;;;;;;7387498;19;20014;-77
2022/12/18 05:00:07;;;;;;;72.15;32.45;;;-7.80;11.50;;;;;;7385533;19;20462;-78
2022/12/18 05:02:37;;;;;;;71.68;30.90;;;-7.80;11.50;;;;;;7387144;19;20014;-76
2022/12/18 05:05:08;;;;;;;70.95;30.98;;;-7.80;11.30;;;;;;7387866;19;20082;-77
2022/12/18 05:07:41;;;;;;;71.97;31.17;;;-7.90;10.60;;;;;;7385904;19;20025;-77
2022/12/18 05:10:12;;;;;;;72.82;31.67;;;-8.00;10.40;;;;;;7385541;19;20082;-76
2022/12/18 05:12:57;;;;;;;70.68;32.40;;;-8.00;10.70;;;;;;7387533;19;20018;-77
2022/12/18 05:15:34;;;;;;;82.25;32.88;;;-8.00;11.30;;;;;;7385868;19;20526;-77
2022/12/18 05:18:05;;;;;;;73.25;31.98;;;-8.10;10.80;;;;;;7387042;19;20019;-77
2022/12/18 05:20:34;;;;;;;80.55;35.08;;;-8.20;11.00;;;;;;7386911;19;20018;-77
2022/12/18 05:23:04;;;;;;;82.30;31.42;;;-8.10;11.20;;;;;;7387473;19;20022;-76
2022/12/18 05:25:34;;;;;;;76.97;31.67;;;-8.20;10.20;;;;;;7386637;19;20090;-75
2022/12/18 05:28:04;;;;;;;77.55;33.47;;;-8.20;11.30;;;;;;7386509;19;20478;-76
2022/12/18 05:30:37;;;;;;;70.65;32.38;;;-8.20;11.10;;;;;;7386387;19;20025;-77
2022/12/18 05:33:07;;;;;;;72.75;31.67;;;-8.30;10.30;;;;;;7388111;19;20011;-77
2022/12/18 05:35:36;;;;;;;68.97;33.25;;;-8.30;11.20;;;;;;7387314;19;20011;-76
2022/12/18 05:38:06;;;;;;;75.32;32.30;;;-8.40;10.80;;;;;;7386788;19;20014;-78
2022/12/18 05:40:36;;;;;;;73.93;32.28;;;-8.40;11.10;;;;;;7387686;19;20022;-76
2022/12/18 05:43:06;;;;;;;79.93;33.65;;;-8.40;11.10;;;;;;7386190;19;20663;-77
2022/12/18 05:45:39;;;;;;;84.38;33.38;;;-8.40;11.10;;;;;;7388206;19;20011;-78
2022/12/18 05:48:10;;;;;;;77.43;32.70;;;-8.40;11.10;;;;;;7385964;19;20018;-77
2022/12/18 05:50:41;;;;;;;75.10;31.58;;;-8.40;11.00;;;;;;7393794;19;20011;-78
2022/12/18 05:53:11;;;;;;;76.45;33.33;;;-8.50;10.70;;;;;;7393517;19;20010;-78
2022/12/18 05:55:42;;;;;;;80.03;32.33;;;-8.40;11.10;;;;;;7391790;19;20015;-77
2022/12/18 05:58:14;;;;;;;76.00;33.15;;;-8.50;11.00;;;;;;7395092;19;20014;-78
2022/12/18 06:00:48;;;;;;;80.05;34.13;;;-8.40;11.10;;;;;;7393989;19;20014;-77
2022/12/18 06:03:18;;;;;;;71.50;33.15;;;-8.40;11.10;;;;;;7393549;19;20476;-77
2022/12/18 06:05:48;;;;;;;72.72;32.63;;;-8.30;11.10;;;;;;7395054;19;20356;-77
2022/12/18 06:08:18;;;;;;;74.70;33.10;;;-8.40;10.30;;;;;;7393879;19;20039;-77
2022/12/18 06:10:54;;;;;;;72.45;32.17;;;-8.40;11.00;;;;;;7393562;19;20093;-78
2022/12/18 06:13:24;;;;;;;73.07;30.90;;;-8.50;10.20;;;;;;7395190;19;20022;-77
2022/12/18 06:15:56;;;;;;;79.47;31.33;;;-8.30;10.80;;;;;;7393815;19;20050;-77
2022/12/18 06:18:26;;;;;;;73.65;32.53;;;-8.40;10.10;;;;;;7393369;19;20046;-77
2022/12/18 06:20:59;;;;;;;71.43;31.65;;;-8.50;9.80;;;;;;7392935;19;20015;-77
2022/12/18 06:23:30;;;;;;;72.10;32.25;;;-8.60;9.40;;;;;;7392984;19;20490;-77
2022/12/18 06:25:59;;;;;;;78.20;32.15;;;-8.60;9.70;;;;;;7392581;19;20553;-77
2022/12/18 06:28:29;;;;;;;67.57;31.67;;;-8.60;9.70;;;;;;7391894;19;20470;-77
2022/12/18 06:31:02;;;;;;;64.50;30.27;;;-8.60;9.80;;;;;;7392880;19;20039;-76
2022/12/18 06:33:32;;;;;;;73.85;33.75;;;-8.60;9.80;;;;;;7392818;19;20018;-76
2022/12/18 06:36:04;;;;;;;74.07;31.52;;;-8.60;9.80;;;;;;7390943;19;20482;-76
2022/12/18 06:38:34;;;;;;;70.55;32.53;;;-8.60;9.80;;;;;;7391751;19;20026;-77
2022/12/18 06:41:09;;;;;;;70.40;30.80;;;-8.70;9.60;;;;;;7394206;19;20102;-78
2022/12/18 06:43:39;;;;;;;67.20;29.70;;;-8.70;9.90;;;;;;7393559;19;20022;-76
2022/12/18 06:46:13;;;;;;;70.85;31.67;;;-8.60;9.90;;;;;;7393044;19;20017;-76
2022/12/18 06:48:43;;;;;;;66.32;30.10;;;-8.70;9.50;;;;;;7390638;19;20018;-77
2022/12/18 06:51:13;;;;;;;67.47;29.75;;;-8.60;10.00;;;;;;7391977;19;20118;-77
2022/12/18 06:53:43;;;;;;;70.72;30.65;;;-8.60;9.20;;;;;;7391868;19;20022;-76
2022/12/18 06:56:13;;;;;;;69.03;30.83;;;-8.60;8.50;;;;;;7389826;19;20808;-76
2022/12/18 06:58:43;;;;;;;63.45;30.05;;;-8.60;8.70;;;;;;7390639;19;20506;-77
2022/12/18 07:01:16;;;;;;;71.65;31.02;;;-8.60;8.30;;;;;;7389201;19;20034;-77
2022/12/18 07:03:46;;;;;;;75.07;32.28;;;-8.60;8.10;;;;;;7391613;19;20021;-77
2022/12/18 07:06:17;;;;;;;70.28;31.50;;;-8.70;7.80;;;;;;7391473;19;20022;-77
2022/12/18 07:08:47;;;;;;;68.72;30.73;;;-8.60;8.80;;;;;;7389878;19;20135;-76
2022/12/18 07:11:18;;;;;;;67.40;30.98;;;-8.60;8.20;;;;;;7391716;19;20025;-76
2022/12/18 07:13:49;;;;;;;65.78;30.67;;;-8.50;8.10;;;;;;7395137;19;20626;-77
2022/12/18 07:16:23;;;;;;;64.22;30.25;;;-8.60;7.50;;;;;;7390483;19;20010;-77
2022/12/18 07:18:55;;;;;;;69.68;31.38;;;-8.60;7.70;;;;;;7389870;19;20019;-77
2022/12/18 07:21:26;;;;;;;65.05;30.35;;;-8.60;7.40;;;;;;7391308;19;20011;-76
2022/12/18 07:23:56;;;;;;;65.70;32.08;;;-8.60;7.50;;;;;;7391254;19;20014;-77
2022/12/18 07:26:26;;;;;;;67.60;30.25;;;-8.60;7.50;;;;;;7391114;19;20025;-77
2022/12/18 07:29:01;;;;;;;69.40;29.75;;;-8.60;7.10;;;;;;7389684;19;20018;-77
2022/12/18 07:31:33;;;;;;;67.45;31.15;;;-8.50;7.10;;;;;;7391642;19;20018;-77
2022/12/18 07:34:03;;;;;;;61.67;28.95;;;-8.50;7.40;;;;;;7392610;19;20015;-76
2022/12/18 07:36:33;;;;;;;61.38;29.55;;;-8.40;7.60;;;;;;7391172;19;20014;-77
2022/12/18 07:39:03;;;;;;;63.78;28.90;;;-8.30;7.60;;;;;;7389220;19;20035;-78
2022/12/18 07:41:33;;;;;;;60.20;29.55;;;-8.20;7.80;;;;;;7391559;19;20021;-77
2022/12/18 07:44:02;;;;;;;64.15;29.33;;;-8.20;7.00;;;;;;7390139;19;20015;-77
2022/12/18 07:46:35;;;;;;;61.13;28.67;;;-8.20;7.10;;;;;;7390861;19;20029;-77
2022/12/18 07:49:05;;;;;;;62.38;29.33;;;-8.20;6.10;;;;;;7390082;19;20092;-77
2022/12/18 07:51:35;;;;;;;66.68;29.73;;;-8.10;6.60;;;;;;7390937;19;20014;-78
2022/12/18 07:54:05;;;;;;;55.63;28.10;;;-8.10;5.80;;;;;;7390374;19;20011;-77
2022/12/18 07:56:35;;;;;;;66.82;29.10;;;-8.00;7.00;;;;;;7389408;19;20514;-77
2022/12/18 07:59:05;;;;;;;61.20;27.52;;;-7.90;6.30;;;;;;7388757;19;20540;-78
2022/12/18 08:01:37;;;;;;;62.40;28.90;;;-7.90;5.60;;;;;;7390489;19;20025;-77
2022/12/18 08:04:07;;;;;;;65.00;30.08;;;-7.80;6.10;;;;;;7390348;19;20021;-77
2022/12/18 08:06:37;;;;;;;65.63;29.48;;;-7.80;5.20;;;;;;7390396;19;20014;-77
2022/12/18 08:09:08;;;;;;;60.42;28.38;;;-7.70;5.00;;;;;;7389868;19;20470;-78
2022/12/18 08:11:38;;;;;;;60.55;28.40;;;-7.80;4.00;;;;;;7391203;19;20017;-77
2022/12/18 08:14:08;;;;;;;66.25;30.55;;;-7.70;4.50;;;;;;7393534;19;20014;-77
2022/12/18 08:16:41;;;;;;;64.72;28.73;;;-7.80;3.00;;;;;;7388823;19;20466;-76
2022/12/18 08:19:14;;;;;;;64.15;29.35;;;-7.70;4.20;;;;;;7388002;19;20010;-77
2022/12/18 08:21:43;;;;;;;56.13;29.42;;;-7.70;4.00;;;;;;7389696;19;20014;-76
2022/12/18 08:24:13;;;;;;;60.33;28.42;;;-7.70;3.30;;;;;;7389692;19;20089;-77
2022/12/18 08:26:43;;;;;;;59.28;28.48;;;-7.70;3.20;;;;;;7390099;19;20030;-77
2022/12/18 08:29:33;;;;;;;63.22;29.83;;;-7.50;3.70;;;;;;7388358;19;20010;-78
2022/12/18 08:32:06;;;;;;;61.92;31.33;;;-7.40;2.80;;;;;;7389872;19;20085;-78
2022/12/18 08:34:36;;;;;;;59.65;28.65;;;-7.40;2.50;;;;;;7389402;19;20022;-78
2022/12/18 08:37:06;;;;;;;59.85;28.90;;;-7.40;1.10;;;;;;7388649;19;20015;-78
2022/12/18 08:39:36;;;;;;;61.60;30.33;;;-7.20;1.20;;;;;;7387515;19;20022;-78
2022/12/18 08:44:49;;;;;;;60.35;29.25;;;-7.20;1.00;;;;;;7390545;19;20014;-78
2022/12/18 08:47:21;;;;;;;56.80;29.02;;;-7.10;1.30;;;;;;7390468;19;20029;-78
2022/12/18 08:49:51;;;;;;;59.15;28.50;;;-7.10;1.00;;;;;;7389981;19;20014;-78
2022/12/18 08:52:21;;;;;;;61.80;29.05;;;-7.00;1.00;;;;;;7390596;19;20386;-78
2022/12/18 08:54:51;;;;;;;62.92;28.45;;;-7.00;1.00;;;;;;7391556;19;20010;-77
2022/12/18 08:57:21;;;;;;;65.95;28.83;;;-6.90;1.00;;;;;;7388339;19;20014;-78
2022/12/18 08:59:51;;;;;;;63.38;29.40;;;-6.70;1.00;;;;;;7386954;19;20011;-79
2022/12/18 09:02:23;;;;;;;57.75;28.15;;;-6.60;1.00;;;;;;7417724;19;20035;-77
2022/12/18 09:04:53;;;;;;;61.05;28.38;;;-6.60;1.00;;;;;;7423566;19;20010;-78
2022/12/18 09:07:26;;;;;;;58.67;30.08;;;-6.60;1.00;;;;;;7421964;19;20006;-76
2022/12/18 09:09:56;;;;;;;63.67;29.85;;;-6.60;1.00;;;;;;7388889;19;20011;-78
2022/12/18 09:12:26;;;;;;;58.70;28.48;;;-6.60;1.00;;;;;;7389035;19;20015;-78
2022/12/18 09:14:56;;;;;;;63.22;29.40;;;-6.40;1.00;;;;;;7388525;19;20097;-77
2022/12/18 09:17:28;;;;;;;63.42;30.02;;;-6.40;1.00;;;;;;7387184;19;20010;-77
2022/12/18 09:19:58;;;;;;;62.17;28.52;;;-6.50;1.00;;;;;;7385481;19;20018;-78
2022/12/18 09:22:28;;;;;;;58.92;27.88;;;-6.40;1.00;;;;;;7387096;19;20459;-78
2022/12/18 09:24:58;;;;;;;60.58;28.90;;;-6.20;1.10;;;;;;7386265;19;20015;-77
2022/12/18 09:27:28;;;;;;;62.78;30.70;;;-6.10;1.00;;;;;;7389502;19;20022;-78
2022/12/18 09:29:58;;;;;;;57.65;27.70;;;-6.20;1.00;;;;;;7387001;19;20014;-76
2022/12/18 09:32:30;;;;;;;64.22;29.73;;;-6.00;1.00;;;;;;7387278;19;20021;-77
2022/12/18 09:35:01;;;;;;;60.45;29.58;;;-6.10;1.00;;;;;;7387063;19;20489;-78
2022/12/18 09:37:31;;;;;;;63.33;28.92;;;-6.00;1.00;;;;;;7388234;19;20031;-77
2022/12/18 09:40:01;;;;;;;61.97;28.95;;;-5.90;1.00;;;;;;7384651;19;20035;-78
2022/12/18 09:42:31;;;;;;;56.00;28.33;;;-5.80;1.00;;;;;;7388266;19;20534;-77
2022/12/18 09:45:02;;;;;;;59.25;28.75;;;-5.70;1.00;;;;;;7387073;19;20011;-78
2022/12/18 09:47:38;;;;;;;67.60;29.35;;;-5.70;1.00;;;;;;7389399;19;20014;-77
2022/12/18 09:50:26;;;;;;;59.83;28.50;;;-5.70;1.00;;;;;;7385759;19;20515;-78
2022/12/18 09:52:58;;;;;;;63.50;29.00;;;-5.60;1.00;;;;;;7388079;19;20007;-77
2022/12/18 09:55:34;;;;;;;56.65;27.55;;;-5.50;1.00;;;;;;7388582;19;20094;-77
2022/12/18 09:58:15;;;;;;;55.00;26.63;;;-5.60;1.00;;;;;;7387609;19;20035;-77
2022/12/18 10:00:45;;;;;;;57.40;27.05;;;-5.40;1.00;;;;;;7389241;19;20451;-77
2022/12/18 10:03:18;;;;;;;60.92;28.35;;;-5.40;1.00;;;;;;7387196;19;20019;-77
2022/12/18 10:06:01;;;;;;;62.45;27.88;;;-5.20;1.00;;;;;;7387651;19;20022;-78
2022/12/18 10:08:42;;;;;;;64.55;27.80;;;-5.10;1.00;;;;;;7387227;19;20010;-75
2022/12/18 10:11:30;;;;;;;58.33;26.38;;;-5.00;1.00;;;;;;7386403;19;20525;-78
2022/12/18 10:14:08;;;;;;;60.45;27.35;;;-4.90;1.00;;;;;;7389793;19;20102;-77
2022/12/18 10:16:49;;;;;;;61.15;27.35;;;-4.80;1.00;;;;;;7388263;19;20120;-77
2022/12/18 10:19:33;;;;;;;60.08;26.13;;;-4.80;1.00;;;;;;7384932;19;20024;-77
2022/12/18 10:22:10;;;;;;;65.75;28.63;;;-4.60;1.00;;;;;;7388217;19;20015;-76
2022/12/18 10:24:47;;;;;;;55.35;25.67;;;-4.60;1.00;;;;;;7385712;19;20010;-77
2022/12/18 10:27:19;;;;;;;59.40;27.35;;;-4.40;1.00;;;;;;7387403;19;20010;-77
2022/12/18 10:29:49;;;;;;;60.03;26.83;;;-4.50;1.00;;;;;;7385584;19;20470;-76
2022/12/18 10:32:22;;;;;;;56.90;25.63;;;-4.50;1.00;;;;;;7386016;19;20011;-77
2022/12/18 10:34:57;;;;;;;63.25;27.98;;;-4.30;1.00;;;;;;7388072;19;20015;-77
2022/12/18 10:37:32;;;;;;;60.08;26.58;;;-4.20;1.00;;;;;;7393098;19;20014;-77
2022/12/18 10:40:16;;;;;;;58.97;26.95;;;-4.10;1.00;;;;;;7392601;19;20014;-77
2022/12/18 10:43:06;;;;;;;60.67;27.67;;;-4.00;1.00;;;;;;7392638;19;20525;-77
2022/12/18 10:45:36;;;;;;;55.47;24.40;;;-4.00;1.00;;;;;;7394340;19;20007;-78
2022/12/18 10:48:07;;;;;;;54.13;24.83;;;-3.90;1.00;;;;;;7393448;19;20078;-78
2022/12/18 10:50:40;;;;;;;61.40;27.15;;;-3.90;1.00;;;;;;7393374;19;20082;-78
2022/12/18 10:53:32;;;;;;;55.33;25.55;;;-3.80;1.00;;;;;;7393579;19;20034;-79
2022/12/18 10:56:03;;;;;;;60.20;26.33;;;-3.80;1.00;;;;;;7392136;19;20705;-78
2022/12/18 10:58:34;;;;;;;59.50;25.90;;;-3.60;1.00;;;;;;7392744;19;20466;-78
2022/12/18 11:01:13;;;;;;;51.83;24.70;;;-3.50;1.00;;;;;;7391870;19;20078;-77
2022/12/18 11:03:45;;;;;;;54.28;24.88;;;-3.60;1.00;;;;;;7391359;19;20035;-78
2022/12/18 11:06:20;;;;;;;58.28;26.35;;;-3.50;1.00;;;;;;7393333;19;20164;-78
2022/12/18 11:09:01;;;;;;;57.25;24.67;;;-3.30;1.00;;;;;;7392231;19;20014;-79
2022/12/18 11:11:39;;;;;;;49.80;24.15;;;-3.20;1.00;;;;;;7393610;19;20015;-78
2022/12/18 11:14:19;;;;;;;55.13;25.05;;;-3.20;1.00;;;;;;7396519;19;20709;-78
2022/12/18 11:16:50;;;;;;;57.17;24.35;;;-3.10;1.00;;;;;;7391511;19;20011;-78
2022/12/18 11:19:42;;;;;;;49.88;22.55;;;-3.00;1.00;;;;;;7388837;19;20025;-78
2022/12/18 11:22:26;;;;;;;52.58;23.92;;;-3.10;1.00;;;;;;7392960;19;20014;-79
2022/12/18 11:24:59;;;;;;;51.03;22.00;;;-2.90;1.00;;;;;;7393075;19;20078;-78
2022/12/18 11:27:57;;;;;;;48.75;24.45;;;-2.90;1.00;;;;;;7392332;19;20483;-79
2022/12/18 11:30:31;;;;;;;53.58;24.95;;;-2.90;1.00;;;;;;7390295;19;20014;-79
2022/12/18 11:33:06;;;;;;;52.97;24.20;;;-2.70;1.00;;;;;;7392584;19;20019;-78
2022/12/18 11:35:42;;;;;;;50.70;23.58;;;-2.70;1.00;;;;;;7392716;19;20017;-79
2022/12/18 11:38:26;;;;;;;58.90;24.75;;;-2.60;1.00;;;;;;7390738;19;20022;-79
2022/12/18 11:41:01;;;;;;;49.17;23.55;;;-2.50;1.00;;;;;;7391020;19;20439;-78
2022/12/18 11:43:34;;;;;;;56.75;25.40;;;-2.50;1.00;;;;;;7390383;19;20018;-80
2022/12/18 11:46:09;;;;;;;49.13;23.23;;;-2.40;1.00;;;;;;7390425;19;20014;-79
2022/12/18 11:48:52;;;;;;;49.70;24.15;;;-2.70;1.00;;;;;;7388944;19;20021;-78
2022/12/18 11:51:29;;;;;;;61.25;26.13;;;-2.40;1.00;;;;;;7390578;19;20359;-80
2022/12/18 11:54:02;;;;;;;48.22;24.00;;;-2.20;1.00;;;;;;7390364;19;20366;-78
2022/12/18 11:56:38;;;;;;;53.85;23.75;;;-2.20;1.00;;;;;;7390690;19;20023;-79
2022/12/18 11:59:18;;;;;;;48.83;23.27;;;-2.00;1.00;;;;;;7390324;19;20478;-79
2022/12/18 12:01:54;;;;;;;49.55;23.80;;;-1.90;1.00;;;;;;7389848;19;20019;-79
2022/12/18 12:04:48;;;;;;;51.75;23.88;;;-2.10;1.00;;;;;;7391311;19;20101;-78
2022/12/18 12:07:26;;;;;;;;;;;-2.00;1.00;;;;;;7393008;19;20022;-79
2022/12/18 12:10:06;;;;;;;53.75;24.50;;;-2.10;1.00;;;;;;7391174;19;19990;-78
2022/12/18 12:12:53;;;;;;;53.63;24.40;;;-2.00;1.00;;;;;;7391880;19;20447;-78
2022/12/18 12:15:32;;;;;;;52.55;23.70;;;-1.90;1.00;;;;;;7390069;19;20014;-78
2022/12/18 12:18:10;;;;;;;51.47;25.23;;;-1.90;1.00;;;;;;7391426;19;20007;-79
2022/12/18 12:20:50;;;;;;;51.00;22.45;;;-1.90;1.00;;;;;;7412359;19;20020;-78
2022/12/18 12:23:33;;;;;;;50.08;24.63;;;-1.90;1.00;;;;;;7422804;19;20018;-77
2022/12/18 12:26:10;;;;;;;49.08;23.58;;;-1.80;1.00;;;;;;7416880;19;20010;-78
2022/12/18 12:28:55;;;;;;;51.22;22.65;;;-1.70;1.00;;;;;;7391953;19;20025;-78
2022/12/18 12:31:35;;;;;;;50.17;23.13;;;-1.80;1.00;;;;;;7391255;19;20092;-78
2022/12/18 12:34:17;;;;;;;50.78;23.38;;;-1.80;1.00;;;;;;7391092;19;20018;-79
2022/12/18 12:37:10;;;;;;;53.15;23.30;;;-1.70;1.00;;;;;;7390377;19;20028;-78
2022/12/18 12:39:42;;;;;;;45.67;21.05;;;-1.70;1.00;;;;;;7388258;19;20019;-78
2022/12/18 12:45:16;;;;;;;46.38;23.67;;;-1.70;1.00;;;;;;7390240;19;20086;-78
2022/12/18 12:47:49;;;;;;;49.85;23.77;;;-1.60;1.00;;;;;;7390814;19;20018;-79
2022/12/18 12:50:22;;;;;;;49.30;23.65;;;-1.50;1.00;;;;;;7388277;19;20022;-79
2022/12/18 12:52:55;;;;;;;48.78;24.55;;;-1.50;1.00;;;;;;7390295;19;20159;-79
2022/12/18 12:55:27;;;;;;;52.78;24.17;;;-1.40;1.00;;;;;;7388307;19;20029;-78
2022/12/18 12:58:10;;;;;;;54.65;25.08;;;-1.30;1.00;;;;;;7389667;19;20019;-78
2022/12/18 13:00:46;;;;;;;50.13;24.38;;;-1.20;1.00;;;;;;7386304;19;20020;-77
2022/12/18 13:03:34;;;;;;;47.33;23.25;;;-1.30;1.00;;;;;;7389217;19;20477;-79
2022/12/18 13:06:12;;;;;;;48.53;22.77;;;-1.20;1.00;;;;;;7389616;19;20505;-78
2022/12/18 13:08:57;;;;;;;49.20;22.48;;;-1.20;1.00;;;;;;7386386;19;20038;-79
2022/12/18 13:14:34;;;;;;;48.17;22.77;;;-1.20;1.00;;;;;;7391770;19;20014;-78